createdAt,value
2022-10-26T00:00:02.311Z,75.60609251554206
2022-10-26T00:15:01.998Z,76.93366750684294
2022-10-26T00:30:01.781Z,75.58748190634581
2022-10-26T00:45:02.425Z,75.65779090325748
2022-10-26T01:00:02.083Z,76.69945032809044
2022-10-26T01:15:01.846Z,77.66389691016953
2022-10-26T01:30:02.522Z,78.5803574166772
2022-10-26T01:45:02.205Z,76.7251935264173
2022-10-26T02:00:01.852Z,77.98257786343336
2022-10-26T02:15:02.494Z,76.18845781653289
2022-10-26T02:30:02.198Z,75.60073279464959
2022-10-26T02:45:01.902Z,78.96927992789107
2022-10-26T03:00:02.663Z,76.20581772746922
2022-10-26T03:15:02.352Z,75.2994843974629
2022-10-26T03:30:02.035Z,77.0847289345299
2022-10-26T03:45:01.690Z,74.76595093233311
2022-10-26T04:00:02.354Z,75.50421722225745
2022-10-26T04:30:02.158Z,75.19021704379149
2022-10-26T04:45:01.814Z,75.17538990575999
2022-10-26T05:00:02.462Z,74.79982290448866
2022-10-26T05:15:04.048Z,74.78181683501643
2022-10-26T05:30:02.233Z,75.71976195788457
2022-10-26T05:45:01.965Z,75.25723012290847
2022-10-26T06:00:01.626Z,75.77366463620591
2022-10-26T06:15:02.302Z,75.57206965635292
2022-10-26T06:30:01.966Z,76.1233480617092
2022-10-26T06:45:01.705Z,76.95499594623988
2022-10-26T07:00:02.398Z,76.90289316831645
2022-10-26T07:15:02.183Z,76.37059583185591
2022-10-26T07:30:02.014Z,76.19872736473002
2022-10-26T07:45:01.724Z,76.44744997450006
2022-10-26T08:00:02.395Z,76.54080954436738
2022-10-26T08:15:02.083Z,79.52000992086494
2022-10-26T08:30:01.799Z,77.43170026999766
2022-10-26T08:45:02.457Z,77.37398265987612
2022-10-26T09:00:02.109Z,77.53840948900933
2022-10-26T09:15:01.757Z,78.32284582463751
2022-10-26T09:30:02.418Z,78.13943972080665
2022-10-26T09:45:02.128Z,78.1501711744012
2022-10-26T10:00:01.805Z,78.25813155418899
2022-10-26T10:15:02.454Z,78.23147216432923
2022-10-26T10:30:04.353Z,78.69639647714932
2022-10-26T10:45:02.252Z,79.28376713770335
2022-10-26T11:00:01.932Z,76.51785187833909
2022-10-26T11:15:01.599Z,75.06000277006058
2022-10-26T11:30:02.339Z,73.92663959142166
2022-10-26T11:45:01.962Z,70.39937285297508
2022-10-26T12:00:01.644Z,72.0240014766773
2022-10-26T12:15:02.296Z,70.90850296915768
2022-10-26T12:30:02.019Z,69.51324763108548
2022-10-26T12:45:01.727Z,69.04233798124837
2022-10-26T13:00:02.370Z,68.2243432154212
2022-10-26T13:15:02.027Z,68.53967757243271
2022-10-26T13:30:01.722Z,67.51442375520749
2022-10-26T13:45:02.337Z,67.19630392539572
2022-10-26T14:00:04.191Z,66.67320279589632
2022-10-26T14:15:02.246Z,67.12610092774415
2022-10-26T14:30:22.628Z,64.7542238275902
2022-10-26T14:45:01.937Z,66.01669807618194
2022-10-26T15:00:01.592Z,65.5547875316041
2022-10-26T15:15:06.285Z,65.87338176517964
2022-10-26T15:30:02.511Z,66.36865087514403
2022-10-26T15:45:02.229Z,67.35675280195525
2022-10-26T16:00:01.887Z,67.76682386493
2022-10-26T16:15:06.096Z,68.43733492374946
2022-10-26T16:30:02.156Z,68.8934676305617
2022-10-26T16:45:03.012Z,69.34610768929468
2022-10-26T17:00:01.962Z,69.6897972498572
2022-10-26T17:15:01.621Z,69.98362098054834
2022-10-26T17:30:02.330Z,70.2160539082049
2022-10-26T17:45:01.959Z,70.4310578364369
2022-10-26T18:00:01.650Z,71.5010000695642
2022-10-26T18:15:02.367Z,71.16103117496257
2022-10-26T18:30:02.065Z,71.16061742308683
2022-10-26T18:45:01.785Z,71.27636595142306
2022-10-26T19:00:02.443Z,71.76902714735245
2022-10-26T19:15:02.050Z,71.46898071019473
2022-10-26T19:30:01.747Z,71.53126506531899
2022-10-26T19:45:02.372Z,71.80378618669657
2022-10-26T20:00:02.040Z,72.59821050232473
2022-10-26T20:15:01.705Z,73.11866056814091
2022-10-26T20:30:02.370Z,73.32925380818472
2022-10-26T20:45:02.024Z,73.04572141243243
2022-10-26T21:00:01.693Z,72.99636277083545
2022-10-26T21:15:02.344Z,72.83873839443604
2022-10-26T21:30:02.047Z,72.9386214232318
2022-10-26T21:45:01.717Z,72.87113295666245
2022-10-26T22:00:02.501Z,73.53467184614617
2022-10-26T22:15:02.117Z,73.48461214921758
2022-10-26T22:30:01.829Z,74.56075256813877
2022-10-26T22:45:02.519Z,73.38076485940273
2022-10-26T23:00:02.197Z,75.52387789255809
2022-10-26T23:15:01.875Z,76.06664389943488
2022-10-26T23:30:02.580Z,74.18895073177504
2022-10-26T23:45:02.261Z,73.81209600653823
